Time;durP1;ratioP1;P1;durP2;ratioP2;P2;SDS_P1;SDS_P2;PMS_P1;PMS_P2;Temp;Humidity;BMP_temperature;BMP_pressure;BME280_temperature;BME280_humidity;BME280_pressure;Samples;Min_cycle;Max_cycle;Signal;HPM_P1;HPM_P2
2021/07/22 00:00:23;;;;;;;20.38;13.80;;;17.40;99.90;;;;;;6269529;28;20059;-78
2021/07/22 00:03:24;;;;;;;17.13;13.65;;;17.40;99.90;;;;;;6268393;28;20036;-78
2021/07/22 00:06:24;;;;;;;18.42;13.40;;;17.40;99.90;;;;;;6267703;28;20544;-78
2021/07/22 00:09:25;;;;;;;16.30;12.93;;;17.40;99.90;;;;;;6269184;28;20037;-78
2021/07/22 00:12:26;;;;;;;16.63;12.75;;;17.40;99.90;;;;;;6301032;28;20053;-78
2021/07/22 00:15:26;;;;;;;13.85;11.15;;;17.40;99.90;;;;;;6267965;28;20017;-78
2021/07/22 00:18:27;;;;;;;14.38;11.93;;;17.30;99.90;;;;;;6269541;28;20455;-78
2021/07/22 00:21:27;;;;;;;16.00;11.73;;;17.30;99.90;;;;;;6269051;28;20504;-78
2021/07/22 00:24:28;;;;;;;14.68;12.18;;;17.30;99.90;;;;;;6267489;28;20035;-78
2021/07/22 00:27:29;;;;;;;16.67;12.20;;;17.30;99.90;;;;;;6267692;28;20458;-78
2021/07/22 00:30:29;;;;;;;16.88;11.68;;;17.10;99.90;;;;;;6267331;28;20044;-78
2021/07/22 00:33:30;;;;;;;18.33;12.35;;;17.10;99.90;;;;;;6268422;28;20040;-78
2021/07/22 00:36:30;;;;;;;17.10;12.90;;;17.00;99.90;;;;;;6267978;28;20041;-78
2021/07/22 00:39:31;;;;;;;17.17;12.88;;;17.00;99.90;;;;;;6268627;28;20029;-78
2021/07/22 00:42:57;;;;;;;16.80;13.25;;;17.00;99.90;;;;;;6267413;28;20043;-78
2021/07/22 00:45:58;;;;;;;17.85;11.90;;;16.90;99.90;;;;;;6283278;28;20021;-78
2021/07/22 00:48:58;;;;;;;14.40;12.15;;;16.90;99.90;;;;;;6267037;28;20493;-78
2021/07/22 00:51:59;;;;;;;20.00;12.95;;;16.70;99.90;;;;;;6267307;28;20025;-78
2021/07/22 00:54:59;;;;;;;16.08;12.82;;;16.60;99.90;;;;;;6268231;28;20037;-78
2021/07/22 00:58:00;;;;;;;16.63;12.82;;;16.50;99.90;;;;;;6268588;28;20108;-78
2021/07/22 01:01:00;;;;;;;17.02;13.23;;;16.50;99.90;;;;;;6268035;28;20061;-78
2021/07/22 01:04:01;;;;;;;16.85;13.02;;;16.50;99.90;;;;;;6266925;28;20028;-78
2021/07/22 01:07:01;;;;;;;16.55;13.02;;;16.50;99.90;;;;;;6266746;28;20385;-78
2021/07/22 01:10:03;;;;;;;14.82;12.23;;;16.50;99.90;;;;;;6268141;28;20087;-78
2021/07/22 01:13:03;;;;;;;18.17;13.27;;;16.40;99.90;;;;;;6266417;28;20053;-78
2021/07/22 01:16:04;;;;;;;17.75;13.40;;;16.30;99.90;;;;;;6268145;28;20029;-78
2021/07/22 01:19:05;;;;;;;18.48;12.00;;;16.30;99.90;;;;;;6266621;28;20355;-78
2021/07/22 01:22:05;;;;;;;16.90;12.05;;;16.30;99.90;;;;;;6266791;28;20032;-78
2021/07/22 01:25:06;;;;;;;16.52;12.35;;;16.30;99.90;;;;;;6267074;28;20036;-78
2021/07/22 01:28:07;;;;;;;14.48;11.52;;;16.30;99.90;;;;;;6266994;28;20499;-78
2021/07/22 01:31:07;;;;;;;15.60;11.82;;;16.20;99.90;;;;;;6266498;28;20052;-78
2021/07/22 01:34:08;;;;;;;18.98;12.57;;;16.20;99.90;;;;;;6267643;28;20029;-78
2021/07/22 01:37:08;;;;;;;15.05;11.32;;;16.20;99.90;;;;;;6266538;28;20021;-78
2021/07/22 01:40:10;;;;;;;15.80;10.93;;;16.20;99.90;;;;;;6267507;28;20049;-78
2021/07/22 01:43:10;;;;;;;17.70;11.80;;;16.20;99.90;;;;;;6267008;28;20059;-78
2021/07/22 01:46:11;;;;;;;14.80;10.10;;;16.20;99.90;;;;;;6267588;28;20025;-78
2021/07/22 01:49:12;;;;;;;16.48;12.00;;;16.10;99.90;;;;;;6266217;28;20036;-78
2021/07/22 01:52:12;;;;;;;15.50;11.07;;;16.10;99.90;;;;;;6267784;28;20122;-77
2021/07/22 01:55:13;;;;;;;18.30;12.77;;;16.00;99.90;;;;;;6265808;28;20123;-78
2021/07/22 01:58:13;;;;;;;15.85;11.20;;;16.00;99.90;;;;;;6267461;28;20025;-78
2021/07/22 02:01:14;;;;;;;17.38;11.50;;;15.90;99.90;;;;;;6267783;28;20031;-78
2021/07/22 02:04:14;;;;;;;18.60;11.75;;;15.90;99.90;;;;;;6267410;28;20029;-78
2021/07/22 02:07:15;;;;;;;13.52;11.18;;;15.90;99.90;;;;;;6267654;28;20075;-78
2021/07/22 02:10:16;;;;;;;13.02;10.65;;;15.90;99.90;;;;;;6266219;28;20379;-78
2021/07/22 02:13:16;;;;;;;16.05;12.13;;;15.90;99.90;;;;;;6266967;28;20380;-78
2021/07/22 02:16:17;;;;;;;14.68;10.77;;;15.80;99.90;;;;;;6265830;28;20063;-78
2021/07/22 02:19:17;;;;;;;14.23;10.75;;;15.90;99.90;;;;;;6271455;28;20029;-78
2021/07/22 02:22:18;;;;;;;14.13;10.73;;;15.80;99.90;;;;;;6271976;28;20625;-78
2021/07/22 02:25:19;;;;;;;14.05;10.32;;;15.80;99.90;;;;;;6271974;28;20067;-78
2021/07/22 02:28:19;;;;;;;13.10;10.13;;;15.60;99.90;;;;;;6272120;28;20509;-78
2021/07/22 02:31:20;;;;;;;15.18;11.45;;;15.50;99.90;;;;;;6270347;28;20075;-78
2021/07/22 02:34:20;;;;;;;17.85;10.80;;;15.40;99.90;;;;;;6270086;28;20498;-78
2021/07/22 02:37:21;;;;;;;13.02;10.32;;;15.40;99.90;;;;;;6271699;28;20071;-77
2021/07/22 02:40:21;;;;;;;14.25;11.10;;;15.30;99.90;;;;;;6270074;28;20051;-77
2021/07/22 02:43:22;;;;;;;17.35;10.32;;;15.30;99.90;;;;;;6271833;28;20175;-78
2021/07/22 02:46:23;;;;;;;12.52;10.57;;;15.30;99.90;;;;;;6269951;28;20431;-78
2021/07/22 02:49:23;;;;;;;13.55;11.05;;;15.30;99.90;;;;;;6271457;28;20041;-77
2021/07/22 02:52:24;;;;;;;17.08;11.23;;;15.20;99.90;;;;;;6271572;28;20032;-78
2021/07/22 02:55:25;;;;;;;14.73;11.07;;;14.50;99.90;;;;;;6269852;28;20108;-78
2021/07/22 02:58:27;;;;;;;14.90;11.27;;;15.10;99.90;;;;;;6269812;28;20367;-78
2021/07/22 03:01:27;;;;;;;13.88;11.73;;;15.10;99.90;;;;;;6270090;28;20029;-78
2021/07/22 03:04:30;;;;;;;15.82;12.25;;;15.10;99.90;;;;;;6269347;28;20036;-78
2021/07/22 03:07:31;;;;;;;16.15;12.32;;;15.20;99.90;;;;;;6269297;28;20032;-77
2021/07/22 03:10:31;;;;;;;18.65;11.88;;;15.20;99.90;;;;;;6269238;28;20447;-77
2021/07/22 03:13:32;;;;;;;18.10;12.77;;;15.20;99.90;;;;;;6269243;28;20052;-77
2021/07/22 03:16:32;;;;;;;19.42;11.75;;;15.20;99.90;;;;;;6270772;28;20028;-77
2021/07/22 03:19:33;;;;;;;15.95;11.48;;;15.20;99.90;;;;;;6269447;28;20033;-78
2021/07/22 03:22:33;;;;;;;16.80;12.23;;;15.30;99.90;;;;;;6270934;28;20028;-78
2021/07/22 03:25:36;;;;;;;15.10;10.15;;;15.20;99.90;;;;;;6270524;28;20447;-77
2021/07/22 03:28:36;;;;;;;;;;;15.30;99.90;;;;;;6269420;28;20542;-78
2021/07/22 03:31:37;;;;;;;18.52;12.07;;;15.30;99.90;;;;;;6285413;28;19915;-77
2021/07/22 03:34:38;;;;;;;15.65;11.73;;;15.40;99.90;;;;;;6269024;28;20064;-78
2021/07/22 03:37:39;;;;;;;15.47;11.57;;;15.40;99.90;;;;;;6270397;28;20035;-78
2021/07/22 03:40:39;;;;;;;14.63;10.48;;;15.40;99.90;;;;;;6269395;28;20033;-77
2021/07/22 03:43:40;;;;;;;13.50;11.35;;;15.30;99.90;;;;;;6270175;28;20025;-78
2021/07/22 03:46:41;;;;;;;16.92;12.98;;;15.30;99.90;;;;;;6268605;28;20040;-78
2021/07/22 03:49:42;;;;;;;14.38;11.43;;;15.30;99.90;;;;;;6269499;28;20072;-78
2021/07/22 03:52:42;;;;;;;16.67;12.02;;;15.20;99.90;;;;;;6270312;28;20020;-78
2021/07/22 03:55:43;;;;;;;15.23;11.77;;;15.30;99.90;;;;;;6268942;28;20021;-77
2021/07/22 03:58:44;;;;;;;15.70;11.55;;;15.20;99.90;;;;;;6268307;28;20147;-78
2021/07/22 04:01:44;;;;;;;15.95;11.65;;;15.10;99.90;;;;;;6269484;28;20028;-78
2021/07/22 04:04:45;;;;;;;17.25;11.90;;;15.20;99.90;;;;;;6268118;28;20455;-77
2021/07/22 04:07:45;;;;;;;16.60;12.13;;;15.10;99.90;;;;;;6269458;28;20048;-78
2021/07/22 04:10:46;;;;;;;15.20;12.30;;;15.00;99.90;;;;;;6268036;28;20520;-78
2021/07/22 04:13:46;;;;;;;18.85;10.43;;;15.00;99.90;;;;;;6267635;28;20057;-78
2021/07/22 04:16:47;;;;;;;18.58;12.15;;;15.10;99.90;;;;;;6267362;28;20471;-78
2021/07/22 04:19:48;;;;;;;17.58;12.10;;;15.00;99.90;;;;;;6267891;28;20378;-78
2021/07/22 04:22:48;;;;;;;14.32;12.27;;;15.00;99.90;;;;;;6267857;28;20122;-78
2021/07/22 04:25:50;;;;;;;15.70;11.82;;;15.10;99.90;;;;;;6267799;28;20518;-78
2021/07/22 04:28:52;;;;;;;15.98;12.40;;;15.30;99.90;;;;;;6268580;28;20021;-78
2021/07/22 04:31:53;;;;;;;16.75;12.10;;;15.50;99.90;;;;;;6266639;28;20648;-78
2021/07/22 04:34:53;;;;;;;15.23;11.43;;;15.60;99.90;;;;;;6267444;28;20063;-78
2021/07/22 04:37:54;;;;;;;17.50;12.20;;;15.80;99.90;;;;;;6267554;28;20060;-78
2021/07/22 04:40:54;;;;;;;18.80;11.80;;;15.90;99.90;;;;;;6267683;28;20028;-81
2021/07/22 04:43:55;;;;;;;15.15;11.98;;;16.10;99.90;;;;;;6266920;28;20061;-77
2021/07/22 04:46:56;;;;;;;17.88;11.52;;;16.40;99.90;;;;;;6267060;28;20040;-76
2021/07/22 04:49:56;;;;;;;15.13;11.88;;;16.60;99.90;;;;;;6268162;28;20116;-77
2021/07/22 04:52:58;;;;;;;14.10;11.50;;;16.80;99.90;;;;;;6268062;28;20474;-77
2021/07/22 04:55:58;;;;;;;15.43;11.65;;;17.00;99.90;;;;;;6267280;28;20120;-77
2021/07/22 04:58:59;;;;;;;12.93;10.90;;;17.50;99.90;;;;;;6268446;28;20021;-78
2021/07/22 05:02:00;;;;;;;19.55;12.70;;;17.40;99.90;;;;;;6266372;28;20040;-77
2021/07/22 05:05:00;;;;;;;14.38;11.55;;;17.70;99.90;;;;;;6268141;28;20060;-76
2021/07/22 05:08:01;;;;;;;16.27;11.85;;;17.90;99.90;;;;;;6266509;28;20102;-76
2021/07/22 05:11:02;;;;;;;17.17;12.50;;;18.20;99.90;;;;;;6267642;28;20049;-76
2021/07/22 05:14:02;;;;;;;19.83;10.88;;;18.40;99.90;;;;;;6267750;28;20059;-76
2021/07/22 05:17:03;;;;;;;15.40;11.80;;;18.60;99.90;;;;;;6268321;28;20029;-75
2021/07/22 05:20:05;;;;;;;17.10;11.88;;;18.70;99.90;;;;;;6267936;28;20443;-76
2021/07/22 05:23:05;;;;;;;15.05;11.77;;;18.70;99.90;;;;;;6266214;28;20381;-75
2021/07/22 05:26:07;;;;;;;15.35;11.77;;;19.00;99.90;;;;;;6268231;28;20020;-76
2021/07/22 05:29:08;;;;;;;14.30;11.70;;;19.30;99.90;;;;;;6266396;28;20108;-77
2021/07/22 05:32:08;;;;;;;16.95;11.90;;;19.70;99.90;;;;;;6266191;28;20041;-75
2021/07/22 05:35:11;;;;;;;14.02;11.40;;;20.10;99.90;;;;;;6266872;28;20025;-76
2021/07/22 05:38:11;;;;;;;14.77;12.20;;;20.90;99.90;;;;;;6267824;28;20348;-77
2021/07/22 05:41:12;;;;;;;13.10;11.07;;;20.80;99.90;;;;;;6267755;28;20063;-75
2021/07/22 05:44:12;;;;;;;13.82;11.80;;;21.10;99.90;;;;;;6267262;28;20028;-74
2021/07/22 05:47:13;;;;;;;16.45;11.88;;;21.20;99.90;;;;;;6267361;28;20492;-74
2021/07/22 05:50:14;;;;;;;16.08;11.30;;;21.40;98.90;;;;;;6267001;28;20601;-74
2021/07/22 05:53:14;;;;;;;13.25;11.02;;;21.70;98.60;;;;;;6270804;28;20040;-74
2021/07/22 05:56:18;;;;;;;15.90;11.95;;;22.10;97.80;;;;;;6272628;28;20032;-74
2021/07/22 05:59:19;;;;;;;15.50;11.60;;;20.50;96.90;;;;;;6272160;28;20033;-74
2021/07/22 06:02:19;;;;;;;14.38;11.90;;;22.30;97.30;;;;;;6272112;28;20083;-74
2021/07/22 06:05:20;;;;;;;18.55;12.18;;;22.70;97.00;;;;;;6272036;28;20064;-75
2021/07/22 06:08:20;;;;;;;13.35;10.77;;;22.80;96.30;;;;;;6272295;28;20037;-74
2021/07/22 06:11:21;;;;;;;13.65;11.32;;;23.10;96.10;;;;;;6271969;28;20053;-75
2021/07/22 06:14:22;;;;;;;13.82;11.57;;;23.20;95.30;;;;;;6272023;28;20105;-75
2021/07/22 06:17:22;;;;;;;14.18;12.40;;;23.40;95.40;;;;;;6271687;28;20029;-74
2021/07/22 06:20:23;;;;;;;16.02;12.73;;;23.50;94.80;;;;;;6271644;28;20039;-75
2021/07/22 06:23:23;;;;;;;16.77;13.77;;;23.90;94.00;;;;;;6271387;28;20018;-74
2021/07/22 06:26:24;;;;;;;14.52;11.95;;;24.00;93.60;;;;;;6271185;28;20061;-75
2021/07/22 06:29:25;;;;;;;18.48;13.15;;;24.00;93.40;;;;;;6270798;28;20029;-74
2021/07/22 06:32:26;;;;;;;16.85;13.00;;;24.20;93.80;;;;;;6271836;28;20024;-74
2021/07/22 06:35:27;;;;;;;15.65;12.48;;;24.40;93.30;;;;;;6271713;28;20035;-74
2021/07/22 06:38:29;;;;;;;16.67;13.33;;;24.60;93.20;;;;;;6271345;28;20395;-84
2021/07/22 06:41:30;;;;;;;20.05;13.27;;;25.10;93.40;;;;;;6270137;28;20787;-82
2021/07/22 06:44:30;;;;;;;16.53;12.47;;;25.40;92.00;;;;;;6269804;28;20095;-82
2021/07/22 06:47:31;;;;;;;15.87;13.40;;;25.90;91.10;;;;;;6269880;28;20451;-83
2021/07/22 06:50:32;;;;;;;15.93;13.10;;;26.20;90.80;;;;;;6269759;28;20049;-83
2021/07/22 06:53:33;;;;;;;16.75;13.25;;;26.30;89.90;;;;;;6269792;28;20020;-83
2021/07/22 06:56:34;;;;;;;18.13;14.13;;;26.50;89.60;;;;;;6269554;28;20144;-83
2021/07/22 06:59:34;;;;;;;16.43;13.47;;;26.90;89.30;;;;;;6269528;28;20029;-83
2021/07/22 07:02:35;;;;;;;16.97;13.10;;;27.40;86.60;;;;;;6268991;28;20029;-83
2021/07/22 07:05:35;;;;;;;16.17;14.00;;;27.50;84.20;;;;;;6269568;28;20025;-83
2021/07/22 07:08:36;;;;;;;17.97;13.33;;;27.80;83.60;;;;;;6269621;28;20450;-82
2021/07/22 07:11:37;;;;;;;15.37;12.90;;;28.70;83.40;;;;;;6268956;28;20049;-82
2021/07/22 07:14:37;;;;;;;19.33;14.37;;;28.60;81.40;;;;;;6269979;28;20080;-82
2021/07/22 07:17:38;;;;;;;15.40;12.80;;;28.60;79.80;;;;;;6269279;28;20029;-82
2021/07/22 07:20:38;;;;;;;20.70;13.77;;;28.50;81.50;;;;;;6269670;28;20017;-82
2021/07/22 07:23:39;;;;;;;18.43;13.00;;;28.90;80.20;;;;;;6270228;28;20024;-82
2021/07/22 07:26:39;;;;;;;15.07;13.23;;;29.10;78.90;;;;;;6269756;28;20509;-82
2021/07/22 07:29:40;;;;;;;18.63;13.23;;;29.20;78.20;;;;;;6270663;28;20475;-82
2021/07/22 07:32:40;;;;;;;19.93;13.33;;;29.30;76.30;;;;;;6269323;28;20094;-83
2021/07/22 07:35:42;;;;;;;15.50;13.27;;;29.40;76.00;;;;;;6268713;28;20116;-81
2021/07/22 07:38:42;;;;;;;16.30;13.77;;;29.60;74.90;;;;;;6268431;28;20027;-82
2021/07/22 07:41:43;;;;;;;16.10;12.70;;;29.60;75.50;;;;;;6268622;28;20022;-83
2021/07/22 07:44:44;;;;;;;15.43;12.60;;;29.70;74.60;;;;;;6268131;28;20033;-82
2021/07/22 07:47:45;;;;;;;16.10;13.03;;;29.80;75.30;;;;;;6269795;28;20098;-83
2021/07/22 07:50:46;;;;;;;14.82;13.15;;;29.80;74.60;;;;;;6268358;28;20037;-82
2021/07/22 07:53:46;;;;;;;15.27;12.70;;;29.90;75.90;;;;;;6268157;28;20056;-82
2021/07/22 07:56:48;;;;;;;15.10;13.60;;;30.00;74.40;;;;;;6268045;28;20060;-82
2021/07/22 07:59:49;;;;;;;15.02;13.05;;;30.10;74.40;;;;;;6268439;28;20095;-81
2021/07/22 08:02:54;;;;;;;20.87;14.20;;;30.10;74.20;;;;;;6269694;28;20458;-82
2021/07/22 08:05:55;;;;;;;14.07;12.57;;;30.20;74.00;;;;;;6251583;28;20363;-82
2021/07/22 08:08:55;;;;;;;17.93;13.60;;;30.20;73.20;;;;;;6251270;28;20036;-84
2021/07/22 08:11:56;;;;;;;16.00;12.60;;;30.60;73.60;;;;;;6266744;28;20426;-84
2021/07/22 08:14:56;;;;;;;16.10;13.53;;;30.80;74.70;;;;;;6266254;28;20020;-84
2021/07/22 08:17:57;;;;;;;16.53;13.93;;;31.00;73.00;;;;;;6267340;28;20021;-84
2021/07/22 08:20:57;;;;;;;17.60;13.43;;;30.80;72.60;;;;;;6267725;28;20078;-84
2021/07/22 08:23:59;;;;;;;14.37;11.80;;;30.90;72.10;;;;;;6267229;28;20427;-83
2021/07/22 08:26:59;;;;;;;;;;;31.10;72.20;;;;;;6269032;28;20024;-82
2021/07/22 08:30:00;;;;;;;16.67;12.03;;;31.10;70.80;;;;;;6283521;28;20419;-82
2021/07/22 08:33:01;;;;;;;15.47;12.70;;;31.10;71.00;;;;;;6268270;28;20025;-82
2021/07/22 08:36:01;;;;;;;12.82;11.20;;;31.10;69.30;;;;;;6267027;28;20020;-82
2021/07/22 08:39:02;;;;;;;12.97;11.60;;;31.40;69.80;;;;;;6266731;28;20037;-83
2021/07/22 08:42:04;;;;;;;13.93;11.60;;;31.60;69.90;;;;;;6266907;28;20086;-83
2021/07/22 08:45:06;;;;;;;17.60;11.30;;;31.60;69.40;;;;;;6267142;28;20098;-84
2021/07/22 08:48:06;;;;;;;13.00;11.55;;;31.80;70.50;;;;;;6266544;28;20442;-83
2021/07/22 08:51:07;;;;;;;16.00;11.83;;;31.80;68.40;;;;;;6266921;28;20120;-84
2021/07/22 08:54:07;;;;;;;16.17;11.77;;;31.90;68.20;;;;;;6250549;28;20056;-83
2021/07/22 08:57:11;;;;;;;14.93;11.70;;;31.70;68.00;;;;;;6267202;28;20025;-83
2021/07/22 09:00:12;;;;;;;15.25;11.82;;;31.80;69.40;;;;;;6266822;28;20064;-83
2021/07/22 09:03:13;;;;;;;14.55;10.90;;;31.70;67.10;;;;;;6266568;28;20368;-83
2021/07/22 09:06:14;;;;;;;15.63;11.70;;;31.80;68.00;;;;;;6267120;28;20025;-82
2021/07/22 09:09:16;;;;;;;13.77;11.52;;;32.10;66.90;;;;;;6267035;28;20525;-82
2021/07/22 09:12:16;;;;;;;16.27;11.15;;;32.00;66.80;;;;;;6266521;28;20556;-82
2021/07/22 09:15:35;;;;;;;14.57;11.60;;;32.20;67.40;;;;;;6266961;28;20048;-82
2021/07/22 09:18:36;;;;;;;14.30;12.18;;;32.10;66.90;;;;;;6266620;28;20058;-81
2021/07/22 09:21:36;;;;;;;14.65;11.07;;;32.10;66.70;;;;;;6266708;28;20075;-82
2021/07/22 09:24:51;;;;;;;13.70;11.17;;;31.90;66.40;;;;;;6266801;28;20043;-82
2021/07/22 09:27:51;;;;;;;15.73;12.07;;;31.90;66.00;;;;;;6271023;28;20284;-83
2021/07/22 09:30:55;;;;;;;12.30;10.80;;;32.10;68.50;;;;;;6271007;28;20051;-84
2021/07/22 09:33:55;;;;;;;15.07;11.27;;;31.90;66.40;;;;;;6287583;28;20283;-85
2021/07/22 09:36:57;;;;;;;14.57;11.60;;;32.10;67.00;;;;;;6271241;28;20029;-87
2021/07/22 09:39:57;;;;;;;;;;;32.30;65.30;;;;;;6271512;28;20498;-85
2021/07/22 09:42:58;;;;;;;15.47;12.67;;;32.30;65.20;;;;;;6288152;28;19909;-84
2021/07/22 09:45:59;;;;;;;15.57;11.63;;;32.10;65.40;;;;;;6271409;28;20106;-85
2021/07/22 09:49:09;;;;;;;13.60;11.43;;;32.20;67.10;;;;;;6271171;28;20517;-85
2021/07/22 09:52:21;;;;;;;18.55;11.98;;;32.30;65.80;;;;;;6271086;28;20342;-85
2021/07/22 09:55:26;;;;;;;13.77;11.73;;;32.40;66.10;;;;;;6271275;28;20021;-83
2021/07/22 09:58:26;;;;;;;13.45;11.73;;;32.50;66.20;;;;;;6266643;28;20040;-85
2021/07/22 10:01:27;;;;;;;13.77;11.73;;;32.70;65.40;;;;;;6271055;28;20021;-85
2021/07/22 10:04:27;;;;;;;14.57;12.30;;;32.50;66.20;;;;;;6270401;28;20759;-85
2021/07/22 10:07:30;;;;;;;12.35;11.05;;;32.50;66.60;;;;;;6270345;28;20315;-84
2021/07/22 10:10:30;;;;;;;14.15;10.80;;;32.30;65.20;;;;;;6270073;28;20049;-84
2021/07/22 10:13:39;;;;;;;13.03;11.73;;;32.20;66.60;;;;;;6270508;28;20134;-84
2021/07/22 10:16:40;;;;;;;14.40;11.27;;;32.10;66.30;;;;;;6270596;28;20271;-85
2021/07/22 10:19:40;;;;;;;13.77;12.37;;;32.10;66.00;;;;;;6271164;28;20076;-85
2021/07/22 10:22:44;;;;;;;15.02;12.55;;;32.10;67.70;;;;;;6269887;28;20020;-85
2021/07/22 10:25:47;;;;;;;14.88;11.52;;;32.00;66.40;;;;;;6254087;28;20067;-85
2021/07/22 10:28:48;;;;;;;16.38;12.65;;;32.10;67.20;;;;;;6270146;28;20879;-83
2021/07/22 10:31:50;;;;;;;12.95;11.48;;;32.00;67.30;;;;;;6269339;28;20033;-84
2021/07/22 10:34:52;;;;;;;15.15;12.60;;;32.00;67.20;;;;;;6270254;28;20033;-84
2021/07/22 10:38:05;;;;;;;16.35;12.75;;;32.20;67.80;;;;;;6269098;28;20055;-84
2021/07/22 10:41:05;;;;;;;13.27;11.90;;;32.30;66.00;;;;;;6271370;28;20375;-84
2021/07/22 10:44:07;;;;;;;14.73;12.50;;;32.40;66.30;;;;;;6269836;28;20032;-85
2021/07/22 10:47:07;;;;;;;15.00;12.90;;;32.30;66.60;;;;;;6269675;28;20271;-85
2021/07/22 10:50:08;;;;;;;21.50;12.77;;;32.30;66.60;;;;;;6269530;28;20123;-85
2021/07/22 10:53:12;;;;;;;14.75;11.90;;;32.20;65.20;;;;;;6269706;28;20025;-85
2021/07/22 10:56:15;;;;;;;13.65;12.27;;;31.90;66.40;;;;;;6269307;28;20123;-85
2021/07/22 10:59:16;;;;;;;12.63;11.27;;;32.00;68.10;;;;;;6269916;28;20052;-85
2021/07/22 11:02:45;;;;;;;13.23;11.20;;;32.20;66.80;;;;;;6269440;28;20025;-85
2021/07/22 11:05:48;;;;;;;13.55;12.18;;;31.80;67.80;;;;;;6269820;28;20463;-84
2021/07/22 11:09:06;;;;;;;13.43;11.80;;;31.80;67.90;;;;;;6285550;28;20157;-84
2021/07/22 11:12:06;;;;;;;13.20;11.05;;;31.40;66.80;;;;;;6269448;28;20482;-84
2021/07/22 11:15:08;;;;;;;18.13;11.63;;;31.40;68.50;;;;;;6269086;28;20025;-84
2021/07/22 11:18:43;;;;;;;14.82;12.40;;;31.50;68.10;;;;;;6269278;28;20129;-84
2021/07/22 11:21:50;;;;;;;14.30;11.50;;;31.30;65.20;;;;;;6270133;28;20099;-85
2021/07/22 11:24:50;;;;;;;12.45;11.15;;;31.10;68.80;;;;;;6269075;28;20021;-84
2021/07/22 11:27:51;;;;;;;14.60;11.27;;;31.10;67.90;;;;;;6268813;28;20378;-85
2021/07/22 11:31:01;;;;;;;12.40;11.10;;;31.30;69.10;;;;;;6268563;28;20422;-84
2021/07/22 11:34:02;;;;;;;14.98;11.60;;;31.20;67.50;;;;;;6269046;28;20032;-82
2021/07/22 11:37:03;;;;;;;13.05;11.45;;;31.10;67.90;;;;;;6268745;28;20028;-82
2021/07/22 11:40:07;;;;;;;12.47;11.17;;;31.20;69.40;;;;;;6268510;28;20033;-84
2021/07/22 11:43:08;;;;;;;11.35;10.20;;;31.30;67.80;;;;;;6268689;28;20263;-84
2021/07/22 11:46:13;;;;;;;14.53;11.83;;;31.30;67.50;;;;;;6268805;28;20099;-84
2021/07/22 11:49:15;;;;;;;15.77;11.43;;;31.40;69.00;;;;;;6268109;28;20032;-84
2021/07/22 11:52:15;;;;;;;12.43;10.45;;;31.40;68.20;;;;;;6268002;28;20045;-85
2021/07/22 11:55:16;;;;;;;12.73;10.73;;;31.30;69.40;;;;;;6268247;28;20025;-85
2021/07/22 11:58:17;;;;;;;13.33;11.00;;;31.10;69.00;;;;;;6268252;28;20089;-84
2021/07/22 12:01:18;;;;;;;13.57;11.90;;;31.10;70.10;;;;;;6267969;28;20418;-85
2021/07/22 12:04:32;;;;;;;15.00;10.80;;;31.00;68.30;;;;;;6267921;28;20041;-85
2021/07/22 12:07:32;;;;;;;14.05;11.18;;;31.10;69.40;;;;;;6268162;28;20049;-85
2021/07/22 12:10:33;;;;;;;14.00;11.47;;;30.90;68.50;;;;;;6251143;28;20531;-85
2021/07/22 12:13:51;;;;;;;14.67;11.83;;;31.00;69.20;;;;;;6267107;28;20383;-86
2021/07/22 12:16:53;;;;;;;13.18;11.77;;;30.90;69.40;;;;;;6267730;28;20451;-85
2021/07/22 12:19:53;;;;;;;14.63;12.15;;;30.80;71.00;;;;;;6267641;28;20386;-87
2021/07/22 12:22:54;;;;;;;19.07;12.90;;;30.80;71.90;;;;;;6267578;28;20029;-85
2021/07/22 12:26:02;;;;;;;14.40;12.07;;;30.60;70.80;;;;;;6267253;28;20078;-85
2021/07/22 12:29:02;;;;;;;13.50;11.90;;;30.60;69.60;;;;;;6267152;28;20136;-83
2021/07/22 12:32:09;;;;;;;15.33;11.93;;;30.70;71.80;;;;;;6270075;28;20054;-83
2021/07/22 12:35:09;;;;;;;14.85;11.20;;;30.50;71.50;;;;;;6267385;28;20848;-83
2021/07/22 12:38:19;;;;;;;13.17;11.43;;;30.50;72.30;;;;;;6250444;28;20040;-83
2021/07/22 12:41:25;;;;;;;15.77;11.93;;;30.30;71.90;;;;;;6266495;28;20167;-83
2021/07/22 12:44:46;;;;;;;15.30;12.20;;;30.20;70.80;;;;;;6266952;28;20025;-83
2021/07/22 12:47:47;;;;;;;13.90;11.80;;;30.20;69.60;;;;;;6267271;28;20467;-83
2021/07/22 12:50:50;;;;;;;14.07;12.13;;;29.90;71.10;;;;;;6266801;28;20037;-85
2021/07/22 12:53:50;;;;;;;13.52;11.90;;;30.50;72.90;;;;;;6267132;28;20485;-84
2021/07/22 12:56:51;;;;;;;16.08;12.35;;;29.90;72.90;;;;;;6266953;28;20064;-84
2021/07/22 13:00:03;;;;;;;14.60;12.03;;;29.80;72.10;;;;;;6267203;28;20037;-85
2021/07/22 13:03:04;;;;;;;14.10;12.52;;;29.50;71.10;;;;;;6266367;28;20017;-85
2021/07/22 13:06:04;;;;;;;14.97;11.60;;;29.80;72.20;;;;;;6267504;28;20103;-85
2021/07/22 13:09:05;;;;;;;16.60;12.07;;;29.80;70.60;;;;;;6267168;28;20328;-84
2021/07/22 13:12:07;;;;;;;14.55;12.32;;;29.80;75.50;;;;;;6265645;28;20468;-85
2021/07/22 13:15:08;;;;;;;16.10;12.40;;;30.00;71.30;;;;;;6267009;28;20673;-84
2021/07/22 13:18:09;;;;;;;13.82;12.30;;;29.90;71.60;;;;;;6250187;28;20025;-85
2021/07/22 13:21:11;;;;;;;12.97;11.57;;;30.00;70.80;;;;;;6266738;28;20040;-85
2021/07/22 13:24:12;;;;;;;13.48;11.68;;;29.90;71.50;;;;;;6266709;28;20064;-84
2021/07/22 13:27:13;;;;;;;14.07;11.05;;;29.90;72.20;;;;;;6267231;28;20029;-84
2021/07/22 13:30:14;;;;;;;12.63;10.77;;;29.80;70.70;;;;;;6266425;28;20044;-85
2021/07/22 13:33:15;;;;;;;14.80;11.90;;;29.80;72.10;;;;;;6266611;28;20032;-85
2021/07/22 13:36:15;;;;;;;13.80;12.30;;;29.80;72.70;;;;;;6266344;28;20021;-85
2021/07/22 13:39:16;;;;;;;16.50;11.30;;;29.90;73.00;;;;;;6266159;28;20150;-84
2021/07/22 13:42:17;;;;;;;12.37;11.17;;;29.80;70.80;;;;;;6266437;28;20036;-85
2021/07/22 13:45:17;;;;;;;14.40;11.23;;;30.00;72.50;;;;;;6266530;28;20076;-85
2021/07/22 13:48:18;;;;;;;15.13;11.63;;;29.90;71.70;;;;;;6266528;28;20099;-85
2021/07/22 13:51:18;;;;;;;16.47;11.07;;;29.80;70.80;;;;;;6266121;28;20044;-85
2021/07/22 13:54:19;;;;;;;13.57;10.77;;;29.90;71.80;;;;;;6266292;28;20071;-85
2021/07/22 13:57:20;;;;;;;15.35;11.73;;;30.00;71.90;;;;;;6266192;28;20021;-85
2021/07/22 14:00:21;;;;;;;13.65;11.65;;;30.00;71.70;;;;;;6266215;28;20029;-84
2021/07/22 14:03:21;;;;;;;18.90;12.13;;;30.00;71.70;;;;;;6266258;28;20116;-86
2021/07/22 14:06:22;;;;;;;15.77;11.53;;;29.90;69.20;;;;;;6265693;28;20028;-86
2021/07/22 14:09:23;;;;;;;13.27;11.77;;;30.00;68.20;;;;;;6266469;28;20029;-85
2021/07/22 14:12:23;;;;;;;14.30;12.27;;;30.10;69.10;;;;;;6265472;28;20379;-86
2021/07/22 14:15:24;;;;;;;14.20;11.40;;;30.10;68.20;;;;;;6270641;28;20055;-85
2021/07/22 14:18:25;;;;;;;15.87;12.30;;;30.20;69.80;;;;;;6270521;28;20439;-84
2021/07/22 14:21:26;;;;;;;13.60;11.50;;;30.10;68.20;;;;;;6270479;28;20033;-85
2021/07/22 14:24:28;;;;;;;14.50;11.95;;;30.20;68.60;;;;;;6270001;28;20044;-85
2021/07/22 14:27:28;;;;;;;13.25;11.35;;;30.20;67.90;;;;;;6270404;28;20063;-86
2021/07/22 14:30:29;;;;;;;15.40;12.00;;;30.10;70.00;;;;;;6270222;28;20467;-86
2021/07/22 14:33:30;;;;;;;15.02;11.50;;;30.00;70.00;;;;;;6270113;28;20013;-85
2021/07/22 14:36:31;;;;;;;16.45;12.82;;;29.90;68.70;;;;;;6270302;28;20043;-85
2021/07/22 14:39:31;;;;;;;16.20;12.63;;;29.90;68.70;;;;;;6269731;28;20041;-84
2021/07/22 14:42:32;;;;;;;13.43;12.03;;;29.90;69.30;;;;;;6270094;28;20029;-85
2021/07/22 14:45:33;;;;;;;15.57;12.43;;;29.90;69.70;;;;;;6269823;28;20029;-85
2021/07/22 14:48:33;;;;;;;19.17;12.40;;;29.80;69.10;;;;;;6269899;28;20082;-85
2021/07/22 14:51:34;;;;;;;15.90;12.07;;;29.80;68.70;;;;;;6270001;28;20040;-85
2021/07/22 14:54:35;;;;;;;16.65;11.88;;;29.80;67.00;;;;;;6269794;28;20068;-85
2021/07/22 14:57:39;;;;;;;13.63;11.77;;;29.50;64.30;;;;;;6269923;28;20036;-90
2021/07/22 15:00:40;;;;;;;12.40;10.88;;;29.90;69.60;;;;;;6286383;28;20033;-85
2021/07/22 15:03:41;;;;;;;14.07;12.35;;;29.40;68.80;;;;;;6268809;28;20057;-84
2021/07/22 15:06:42;;;;;;;14.55;11.90;;;29.40;71.10;;;;;;6269091;28;20560;-85
2021/07/22 15:09:42;;;;;;;16.97;11.73;;;29.50;67.90;;;;;;6269263;28;20410;-85
2021/07/22 15:12:43;;;;;;;12.93;11.63;;;29.50;67.00;;;;;;6269311;28;20454;-84
2021/07/22 15:15:44;;;;;;;13.87;11.03;;;29.50;67.00;;;;;;6269177;28;20029;-76
2021/07/22 15:18:44;;;;;;;16.43;12.00;;;29.40;65.70;;;;;;6269037;28;20033;-75
2021/07/22 15:21:45;;;;;;;15.43;11.63;;;29.30;65.90;;;;;;6270231;28;20690;-76